Time;durP1;ratioP1;P1;durP2;ratioP2;P2;SDS_P1;SDS_P2;PMS_P1;PMS_P2;Temp;Humidity;BMP_temperature;BMP_pressure;BME280_temperature;BME280_humidity;BME280_pressure;Samples;Min_cycle;Max_cycle;Signal;HPM_P1;HPM_P2
2022/03/05 00:00:31;;;;;;;18.87;6.57;;;;;;;0.39;75.58;100666.44;5035067;28;20084;-83
2022/03/05 00:02:57;;;;;;;22.70;7.18;;;;;;;0.28;75.94;100668.25;5035510;28;20037;-78
2022/03/05 00:05:22;;;;;;;;;;;;;;;0.25;75.95;100665.00;5036154;28;20080;-78
2022/03/05 00:07:48;;;;;;;20.00;7.13;;;;;;;0.03;76.60;100673.97;5035059;28;19917;-78
2022/03/05 00:10:14;;;;;;;16.52;6.25;;;;;;;0.06;76.81;100664.91;5036010;28;20033;-78
2022/03/05 00:12:39;;;;;;;18.15;6.53;;;;;;;0.01;76.98;100660.00;5035682;28;20029;-79
2022/03/05 00:15:05;;;;;;;24.63;7.78;;;;;;;0.06;77.06;100672.84;5035176;28;20025;-79
2022/03/05 00:17:31;;;;;;;24.90;7.93;;;;;;;-0.05;77.45;100663.19;5035742;28;20033;-78
2022/03/05 00:19:56;;;;;;;19.08;6.30;;;;;;;-0.09;77.47;100667.06;5035186;28;20032;-80
2022/03/05 00:22:22;;;;;;;18.57;6.97;;;;;;;-0.02;77.65;100668.22;5034875;28;20041;-78
2022/03/05 00:24:47;;;;;;;23.60;7.63;;;;;;;-0.12;77.87;100673.47;5034959;28;20048;-78
2022/03/05 00:27:12;;;;;;;20.17;7.47;;;;;;;0.00;77.36;100676.91;5035502;28;20284;-78
2022/03/05 00:29:38;;;;;;;23.23;7.30;;;;;;;-0.13;77.66;100679.72;5035667;28;20473;-78
2022/03/05 00:32:03;;;;;;;26.02;7.65;;;;;;;-0.14;77.45;100679.84;5035119;28;20339;-78
2022/03/05 00:34:29;;;;;;;20.55;7.35;;;;;;;-0.01;77.56;100677.88;5034436;28;20025;-78
2022/03/05 00:36:54;;;;;;;22.27;7.72;;;;;;;-0.06;77.35;100683.53;5035893;28;20038;-78
2022/03/05 00:39:19;;;;;;;23.07;7.10;;;;;;;-0.10;77.33;100673.34;5035335;28;20034;-78
2022/03/05 00:41:45;;;;;;;18.10;7.45;;;;;;;-0.12;77.45;100670.81;5035094;28;20543;-78
2022/03/05 00:44:11;;;;;;;18.45;7.82;;;;;;;-0.17;78.05;100673.00;5035264;28;20029;-78
2022/03/05 00:46:36;;;;;;;22.13;8.27;;;;;;;-0.03;77.16;100664.75;5035535;28;20468;-78
2022/03/05 00:49:02;;;;;;;16.40;6.47;;;;;;;-0.27;78.39;100660.69;5034569;28;20037;-78
2022/03/05 00:51:27;;;;;;;22.77;7.20;;;;;;;-0.27;78.06;100663.31;5035399;28;20325;-78
2022/03/05 00:53:53;;;;;;;19.30;6.67;;;;;;;-0.32;78.58;100662.88;5035045;28;20026;-78
2022/03/05 00:56:18;;;;;;;22.47;6.57;;;;;;;-0.21;78.39;100668.13;5035457;28;20040;-78
2022/03/05 00:58:43;;;;;;;21.30;6.90;;;;;;;-0.12;77.91;100660.22;5034584;28;20261;-79
2022/03/05 01:01:09;;;;;;;23.27;6.50;;;;;;;-0.29;78.35;100666.09;5034629;28;20037;-78
2022/03/05 01:03:34;;;;;;;22.38;6.85;;;;;;;-0.33;78.71;100653.25;5034429;28;20256;-78
2022/03/05 01:06:00;;;;;;;21.23;7.45;;;;;;;-0.37;78.82;100661.47;5034705;28;20480;-78
2022/03/05 01:08:26;;;;;;;22.63;7.35;;;;;;;-0.22;78.25;100651.38;5034820;28;20025;-79
2022/03/05 01:10:51;;;;;;;16.92;6.90;;;;;;;-0.25;78.22;100650.81;5034606;28;20037;-78
2022/03/05 01:13:17;;;;;;;20.30;7.22;;;;;;;-0.27;78.23;100656.22;5034449;28;20487;-78
2022/03/05 01:15:42;;;;;;;26.15;7.75;;;;;;;-0.17;77.86;100653.63;5034141;28;20465;-78
2022/03/05 01:18:08;;;;;;;25.70;8.20;;;;;;;-0.34;78.30;100647.09;5038195;28;20488;-78
2022/03/05 01:20:33;;;;;;;24.45;8.25;;;;;;;-0.37;78.58;100650.88;5038503;28;20029;-78
2022/03/05 01:22:58;;;;;;;21.92;8.25;;;;;;;-0.36;78.43;100647.22;5038500;28;20423;-78
2022/03/05 01:25:24;;;;;;;22.50;6.50;;;;;;;-0.36;78.61;100638.50;5038454;28;20030;-78
2022/03/05 01:27:49;;;;;;;24.00;8.18;;;;;;;-0.36;78.25;100641.94;5038636;28;20361;-78
2022/03/05 01:30:15;;;;;;;21.47;7.27;;;;;;;-0.38;78.59;100637.78;5038023;28;20038;-77
2022/03/05 01:32:40;;;;;;;22.25;7.70;;;;;;;-0.35;78.73;100635.69;5039149;28;20270;-78
2022/03/05 01:35:07;;;;;;;24.73;6.47;;;;;;;-0.46;78.88;100634.91;5038434;28;20108;-78
2022/03/05 01:37:32;;;;;;;;;;;;;;;-0.37;78.68;100632.34;5038273;28;20026;-77
2022/03/05 01:39:57;;;;;;;22.35;6.72;;;;;;;-0.57;79.43;100637.63;5038013;28;19916;-79
2022/03/05 01:42:24;;;;;;;17.52;7.88;;;;;;;-0.47;78.96;100642.03;5038334;28;20018;-78
2022/03/05 01:44:50;;;;;;;21.88;9.10;;;;;;;-0.57;79.49;100632.34;5038326;28;20100;-78
2022/03/05 01:47:15;;;;;;;21.45;7.35;;;;;;;-0.55;79.84;100638.34;5038245;28;20037;-79
2022/03/05 01:49:41;;;;;;;20.08;7.38;;;;;;;-0.67;80.20;100637.53;5038066;28;20065;-78
2022/03/05 01:52:06;;;;;;;24.13;8.27;;;;;;;-0.69;80.30;100642.13;5037862;28;20034;-78
2022/03/05 01:54:32;;;;;;;21.90;8.33;;;;;;;-0.65;79.81;100640.06;5037850;28;20427;-78
2022/03/05 01:56:59;;;;;;;17.75;7.50;;;;;;;-0.51;79.75;100637.09;5038091;28;20794;-78
2022/03/05 01:59:25;;;;;;;23.75;7.50;;;;;;;-0.46;78.96;100635.75;5037885;28;20029;-78
2022/03/05 02:01:50;;;;;;;21.40;7.68;;;;;;;-0.69;80.53;100634.19;5037899;28;20502;-78
2022/03/05 02:04:16;;;;;;;24.30;6.95;;;;;;;-0.63;79.97;100633.69;5036772;28;20030;-78
2022/03/05 02:06:42;;;;;;;22.48;7.07;;;;;;;-0.67;80.11;100642.84;5037512;28;20389;-78
2022/03/05 02:09:07;;;;;;;15.95;5.50;;;;;;;-0.65;80.14;100635.63;5037578;28;20403;-78
2022/03/05 02:11:33;;;;;;;23.37;8.50;;;;;;;-0.60;79.75;100632.59;5037426;28;20041;-77
2022/03/05 02:13:58;;;;;;;22.52;7.95;;;;;;;-0.63;80.09;100628.38;5037881;28;20627;-77
2022/03/05 02:16:24;;;;;;;22.95;6.65;;;;;;;-0.75;80.11;100632.91;5037581;28;20030;-78
2022/03/05 02:18:52;;;;;;;24.60;7.50;;;;;;;-0.65;79.97;100627.69;5036710;28;20476;-78
2022/03/05 02:21:20;;;;;;;19.33;7.38;;;;;;;-0.77;80.43;100626.91;5037341;28;20069;-77
2022/03/05 02:23:45;;;;;;;24.27;6.80;;;;;;;-0.79;79.94;100628.00;5037383;28;20037;-78
2022/03/05 02:26:11;;;;;;;20.77;7.83;;;;;;;-0.62;79.59;100623.94;5037897;28;20025;-78
2022/03/05 02:28:38;;;;;;;18.33;7.50;;;;;;;-0.75;79.90;100624.97;5034917;28;20260;-78
2022/03/05 02:31:04;;;;;;;24.70;7.57;;;;;;;-0.81;79.98;100629.94;5037910;28;20033;-78
2022/03/05 02:33:30;;;;;;;19.83;7.95;;;;;;;-0.83;79.83;100627.41;5037929;28;20048;-78
2022/03/05 02:35:55;;;;;;;20.42;7.65;;;;;;;-0.68;79.19;100621.78;5037369;28;20029;-82
2022/03/05 02:38:23;;;;;;;25.33;6.85;;;;;;;-0.65;78.51;100629.47;5037639;28;20396;-77
2022/03/05 02:40:50;;;;;;;23.38;7.53;;;;;;;-0.72;79.07;100624.69;5038771;28;20125;-77
2022/03/05 02:43:16;;;;;;;22.70;7.38;;;;;;;-0.74;78.78;100625.81;5041705;28;20033;-77
2022/03/05 02:45:42;;;;;;;25.95;8.63;;;;;;;-0.69;78.66;100618.31;5045632;28;20039;-78
2022/03/05 02:48:11;;;;;;;17.55;6.40;;;;;;;-0.72;78.90;100616.75;5038112;28;20034;-79
2022/03/05 02:50:37;;;;;;;22.88;7.43;;;;;;;-0.84;78.94;100612.50;5036580;28;20080;-78
2022/03/05 02:53:03;;;;;;;25.30;6.60;;;;;;;-0.71;78.88;100612.31;5037233;28;20033;-78
2022/03/05 02:55:29;;;;;;;;;;;;;;;-0.75;78.66;100618.84;5037152;28;20034;-77
2022/03/05 02:57:54;;;;;;;21.92;6.95;;;;;;;-0.73;78.61;100611.63;5036441;28;19915;-78
2022/03/05 03:00:20;;;;;;;22.35;7.35;;;;;;;-0.62;78.40;100613.34;5037471;28;20053;-79
2022/03/05 03:02:45;;;;;;;21.10;6.85;;;;;;;-0.80;78.58;100618.38;5038001;28;20483;-78
2022/03/05 03:05:12;;;;;;;19.98;6.60;;;;;;;-0.67;78.19;100607.59;5036740;28;20075;-79
2022/03/05 03:07:38;;;;;;;17.75;7.40;;;;;;;-0.77;78.52;100607.53;5035427;28;20037;-79
2022/03/05 03:10:05;;;;;;;17.48;5.88;;;;;;;-0.81;78.58;100612.25;5036612;28;20029;-79
2022/03/05 03:12:31;;;;;;;20.10;7.13;;;;;;;-0.71;78.36;100610.50;5035384;28;20037;-79
2022/03/05 03:14:56;;;;;;;15.93;5.90;;;;;;;-0.89;78.78;100611.19;5035271;28;20116;-78
2022/03/05 03:17:22;;;;;;;16.58;7.30;;;;;;;-0.78;78.67;100597.94;5036603;28;20267;-78
2022/03/05 03:19:48;;;;;;;16.77;6.32;;;;;;;-0.72;77.89;100608.00;5036766;28;20097;-78
2022/03/05 03:22:14;;;;;;;18.55;5.97;;;;;;;-0.78;77.98;100605.88;5036364;28;20515;-78
2022/03/05 03:24:40;;;;;;;16.08;6.43;;;;;;;-0.85;78.37;100604.69;5036758;28;20260;-78
2022/03/05 03:27:06;;;;;;;16.08;6.22;;;;;;;-0.80;77.96;100598.06;5036028;28;20119;-78
2022/03/05 03:29:31;;;;;;;14.20;5.17;;;;;;;-0.63;77.43;100599.28;5035932;28;20037;-78
2022/03/05 03:31:56;;;;;;;22.27;6.20;;;;;;;-0.68;77.21;100606.75;5035508;28;20025;-78
2022/03/05 03:34:22;;;;;;;16.77;5.18;;;;;;;-0.70;77.48;100600.75;5035866;28;20026;-78
2022/03/05 03:36:47;;;;;;;19.87;6.03;;;;;;;-0.74;77.67;100600.19;5036073;28;20037;-78
2022/03/05 03:39:13;;;;;;;18.35;7.43;;;;;;;-0.79;78.01;100593.59;5034939;28;20112;-78
2022/03/05 03:41:38;;;;;;;23.70;7.73;;;;;;;-0.76;77.75;100596.00;5034543;28;20037;-78
2022/03/05 03:44:04;;;;;;;24.87;8.13;;;;;;;-0.75;77.80;100589.75;5035832;28;20025;-79
2022/03/05 03:46:29;;;;;;;23.20;6.38;;;;;;;-0.72;77.76;100602.72;5035860;28;20834;-79
2022/03/05 03:48:55;;;;;;;18.73;6.53;;;;;;;-0.78;77.65;100608.50;5036160;28;20033;-80
2022/03/05 03:51:20;;;;;;;15.30;6.03;;;;;;;-0.72;77.18;100608.81;5036117;28;20132;-79
2022/03/05 03:53:46;;;;;;;16.37;5.70;;;;;;;-0.57;76.59;100612.00;5035700;28;20112;-79
2022/03/05 03:56:31;;;;;;;17.92;5.30;;;;;;;-0.72;77.53;100613.31;5035357;28;20035;-78
2022/03/05 03:58:56;;;;;;;19.13;6.60;;;;;;;-0.79;77.46;100633.28;5035246;28;20112;-80
2022/03/05 04:01:22;;;;;;;18.23;6.35;;;;;;;-0.73;77.22;100630.13;5035692;28;20123;-78
2022/03/05 04:03:47;;;;;;;22.25;6.65;;;;;;;-0.76;77.46;100622.44;5034577;28;20037;-79
2022/03/05 04:06:12;;;;;;;23.33;6.77;;;;;;;-0.92;77.45;100620.25;5034327;28;20037;-78
2022/03/05 04:08:44;;;;;;;17.25;6.03;;;;;;;-0.83;77.39;100619.47;5035379;28;20018;-79
2022/03/05 04:11:11;;;;;;;21.58;7.18;;;;;;;-0.75;77.28;100622.31;5034841;28;20034;-79
2022/03/05 04:13:37;;;;;;;26.50;7.55;;;;;;;-0.87;77.52;100625.97;5034779;28;20037;-79
2022/03/05 04:16:04;;;;;;;18.23;5.95;;;;;;;-0.85;77.26;100626.69;5033835;28;20522;-79
2022/03/05 04:18:29;;;;;;;18.05;5.30;;;;;;;-0.87;77.38;100623.31;5033022;28;20083;-78
2022/03/05 04:20:55;;;;;;;14.25;4.90;;;;;;;-0.80;77.31;100623.66;5034926;28;20379;-79
2022/03/05 04:23:20;;;;;;;20.63;6.45;;;;;;;-0.82;76.86;100626.44;5034602;28;20045;-78
2022/03/05 04:25:45;;;;;;;20.17;5.72;;;;;;;-0.78;76.87;100629.69;5034731;28;20036;-78
2022/03/05 04:28:11;;;;;;;22.50;7.15;;;;;;;-0.81;76.55;100627.28;5034249;28;20037;-78
2022/03/05 04:30:36;;;;;;;14.93;5.03;;;;;;;-0.81;76.75;100624.63;5033449;28;20026;-78
2022/03/05 04:33:02;;;;;;;18.65;6.82;;;;;;;-0.70;76.17;100622.75;5034601;28;20034;-79
2022/03/05 04:35:27;;;;;;;22.08;7.40;;;;;;;-0.76;76.13;100628.59;5034633;28;20369;-80
2022/03/05 04:37:52;;;;;;;16.13;5.50;;;;;;;-0.91;76.56;100629.84;5034444;28;20029;-78
2022/03/05 04:40:18;;;;;;;21.42;6.18;;;;;;;-0.79;76.43;100636.78;5033582;28;20030;-78
2022/03/05 04:42:44;;;;;;;18.13;6.40;;;;;;;-0.78;76.23;100635.81;5033836;28;20076;-78
2022/03/05 04:45:10;;;;;;;23.08;7.18;;;;;;;-0.96;76.99;100632.03;5033047;28;20473;-78
2022/03/05 04:47:38;;;;;;;;;;;;;;;-0.95;77.12;100636.34;5034764;28;20109;-78
2022/03/05 04:50:05;;;;;;;22.98;7.63;;;;;;;-0.95;76.75;100639.00;5034820;28;19917;-78
2022/03/05 04:52:30;;;;;;;19.27;5.85;;;;;;;-0.94;76.93;100637.19;5037149;28;20036;-78
2022/03/05 04:54:56;;;;;;;20.02;7.28;;;;;;;-0.84;76.77;100625.72;5038613;28;20029;-79
2022/03/05 04:57:22;;;;;;;21.45;6.88;;;;;;;-0.96;76.74;100645.25;5037074;28;20453;-78
2022/03/05 04:59:48;;;;;;;17.27;4.93;;;;;;;-0.92;76.78;100638.75;5036695;28;20032;-80
2022/03/05 05:02:13;;;;;;;19.83;6.20;;;;;;;-0.98;76.75;100638.41;5037867;28;20053;-78
2022/03/05 05:04:39;;;;;;;17.88;5.47;;;;;;;-0.92;76.80;100633.47;5037895;28;20491;-79
2022/03/05 05:07:04;;;;;;;15.90;5.83;;;;;;;-0.95;76.72;100636.34;5038059;28;20052;-78
2022/03/05 05:09:30;;;;;;;17.60;5.87;;;;;;;-1.00;77.24;100637.69;5037872;28;20260;-78
2022/03/05 05:11:56;;;;;;;23.63;6.78;;;;;;;-1.04;77.31;100634.44;5039573;28;20021;-79
2022/03/05 05:14:21;;;;;;;16.77;6.18;;;;;;;-0.98;77.09;100628.66;5041185;28;20056;-79
2022/03/05 05:16:47;;;;;;;20.90;6.38;;;;;;;-0.98;77.25;100633.13;5042091;28;20412;-79
2022/03/05 05:19:25;;;;;;;18.77;4.63;;;;;;;-1.03;77.44;100636.13;5042482;28;20071;-80
2022/03/05 05:22:00;;;;;;;17.45;5.90;;;;;;;-1.00;76.92;100637.69;5042230;28;20256;-79
2022/03/05 05:24:28;;;;;;;26.58;6.07;;;;;;;-1.09;77.87;100641.94;5043134;28;20550;-78
2022/03/05 05:26:55;;;;;;;21.02;7.13;;;;;;;-1.03;77.53;100635.28;5042460;28;20030;-78
2022/03/05 05:29:21;;;;;;;13.30;5.32;;;;;;;-0.70;76.06;100636.00;5040672;28;20048;-78
2022/03/05 05:31:47;;;;;;;19.80;5.20;;;;;;;-0.86;76.26;100638.22;5042909;28;20033;-78
2022/03/05 05:34:13;;;;;;;20.55;6.97;;;;;;;-1.01;77.01;100642.13;5042097;28;20041;-78
2022/03/05 05:36:38;;;;;;;18.35;6.75;;;;;;;-0.93;76.90;100641.53;5043111;28;20100;-79
2022/03/05 05:39:08;;;;;;;19.25;7.43;;;;;;;-1.08;77.44;100647.09;5040111;28;20121;-79
2022/03/05 05:41:35;;;;;;;19.38;5.22;;;;;;;-1.01;77.10;100639.50;5042698;28;20040;-78
2022/03/05 05:44:03;;;;;;;19.65;6.35;;;;;;;-0.74;75.91;100641.69;5042611;28;20096;-78
2022/03/05 05:46:29;;;;;;;18.00;5.75;;;;;;;-0.74;75.90;100647.81;5045341;28;20076;-78
2022/03/05 05:48:56;;;;;;;21.23;6.22;;;;;;;-0.89;76.44;100640.28;5040492;28;20037;-78
2022/03/05 05:51:22;;;;;;;22.98;6.35;;;;;;;-0.81;75.99;100645.78;5039539;28;20040;-78
2022/03/05 05:53:47;;;;;;;;;;;;;;;-0.89;76.25;100649.06;5039991;28;20223;-77
2022/03/05 05:56:13;;;;;;;12.20;4.60;;;;;;;-0.99;76.83;100653.44;5039721;28;20439;-79
2022/03/05 05:58:38;;;;;;;16.57;5.33;;;;;;;-1.01;76.85;100654.53;5037736;28;20030;-74
2022/03/05 06:01:03;;;;;;;16.50;5.73;;;;;;;-1.03;76.63;100651.16;5035891;28;20292;-77
2022/03/05 06:03:29;;;;;;;15.88;5.20;;;;;;;-0.98;76.66;100656.91;5035305;28;20225;-79
2022/03/05 06:05:58;;;;;;;17.17;5.93;;;;;;;-0.88;76.61;100653.38;5035199;28;20571;-77
2022/03/05 06:08:23;;;;;;;18.30;6.72;;;;;;;-0.71;75.53;100652.00;5035032;28;20021;-79
2022/03/05 06:10:48;;;;;;;20.98;5.70;;;;;;;-0.80;76.05;100653.59;5034883;28;20098;-77
2022/03/05 06:13:14;;;;;;;17.73;5.87;;;;;;;-0.82;75.84;100654.69;5035209;28;20034;-77
2022/03/05 06:15:39;;;;;;;18.05;5.65;;;;;;;-0.82;76.11;100652.06;5035193;28;20026;-77
2022/03/05 06:18:05;;;;;;;20.30;5.85;;;;;;;-0.72;75.81;100645.84;5034950;28;20037;-77
2022/03/05 06:20:30;;;;;;;18.02;6.30;;;;;;;-0.72;75.85;100653.78;5034889;28;20037;-77
2022/03/05 06:22:55;;;;;;;17.10;6.20;;;;;;;-0.73;75.94;100649.50;5034770;28;20029;-78
2022/03/05 06:25:21;;;;;;;18.73;6.38;;;;;;;-0.46;74.37;100646.34;5034808;28;20550;-77
2022/03/05 06:27:46;;;;;;;23.27;6.70;;;;;;;-0.75;75.37;100650.59;5034719;28;20530;-77
2022/03/05 06:30:13;;;;;;;21.60;5.93;;;;;;;-0.69;75.12;100650.06;5034799;28;20376;-77
2022/03/05 06:32:38;;;;;;;15.80;5.43;;;;;;;-0.79;75.54;100652.66;5035049;28;20029;-77
2022/03/05 06:35:05;;;;;;;20.23;5.65;;;;;;;-0.69;74.99;100650.06;5034814;28;20033;-77
2022/03/05 06:37:31;;;;;;;14.80;6.03;;;;;;;-0.52;74.56;100641.56;5033742;28;20036;-77
2022/03/05 06:39:57;;;;;;;16.70;5.35;;;;;;;-0.66;75.18;100643.69;5036453;28;20110;-78
2022/03/05 06:42:23;;;;;;;18.45;6.60;;;;;;;-0.68;76.12;100646.44;5035245;28;20108;-76
2022/03/05 06:44:49;;;;;;;16.50;6.40;;;;;;;-0.72;75.30;100650.34;5034536;28;20040;-77
2022/03/05 06:47:14;;;;;;;20.42;6.00;;;;;;;-0.67;75.08;100655.22;5032891;28;20033;-76
2022/03/05 06:49:39;;;;;;;21.13;6.00;;;;;;;-0.53;74.98;100650.47;5034480;28;20179;-77
2022/03/05 06:52:05;;;;;;;20.07;6.03;;;;;;;-0.49;74.86;100666.94;5034366;28;20248;-77
2022/03/05 06:54:30;;;;;;;16.27;5.68;;;;;;;-0.46;74.91;100659.56;5034567;28;20291;-77
2022/03/05 06:56:56;;;;;;;14.52;5.93;;;;;;;-0.25;73.49;100656.94;5034791;28;20034;-77
2022/03/05 06:59:22;;;;;;;24.17;6.55;;;;;;;-0.32;73.92;100668.16;5034285;28;20075;-78
2022/03/05 07:01:47;;;;;;;17.80;5.63;;;;;;;-0.33;74.15;100666.47;5034332;28;20116;-78
2022/03/05 07:04:12;;;;;;;17.93;5.67;;;;;;;-0.24;73.99;100669.22;5034103;28;20037;-77
2022/03/05 07:06:38;;;;;;;16.87;5.77;;;;;;;-0.23;73.94;100664.75;5034624;28;20245;-76
2022/03/05 07:09:04;;;;;;;19.25;5.38;;;;;;;-0.20;74.20;100662.69;5032694;28;20431;-76
2022/03/05 07:11:30;;;;;;;19.63;5.75;;;;;;;-0.13;74.31;100668.28;5033696;28;20041;-76
2022/03/05 07:13:56;;;;;;;17.85;6.32;;;;;;;0.04;73.67;100664.19;5033319;28;20100;-76
2022/03/05 07:16:21;;;;;;;20.35;6.03;;;;;;;0.10;73.49;100675.13;5033767;28;20118;-76
2022/03/05 07:18:46;;;;;;;22.83;6.90;;;;;;;0.16;73.01;100677.25;5032256;28;20047;-76
2022/03/05 07:21:12;;;;;;;22.85;7.88;;;;;;;0.34;71.59;100675.66;5032463;28;20354;-76
2022/03/05 07:23:37;;;;;;;20.20;6.47;;;;;;;0.30;71.86;100679.56;5033993;28;20044;-76
2022/03/05 07:26:03;;;;;;;14.15;5.47;;;;;;;0.54;71.30;100684.50;5033722;28;20029;-76
2022/03/05 07:28:28;;;;;;;14.85;5.25;;;;;;;0.78;70.49;100680.69;5032376;28;20376;-78
2022/03/05 07:30:55;;;;;;;15.17;6.60;;;;;;;0.63;69.76;100686.38;5032502;28;20461;-77
2022/03/05 07:33:21;;;;;;;15.43;5.57;;;;;;;0.78;69.90;100691.28;5033956;28;20108;-77
2022/03/05 07:35:46;;;;;;;15.77;5.13;;;;;;;0.71;70.10;100698.97;5034372;28;20116;-77
2022/03/05 07:38:12;;;;;;;17.20;5.93;;;;;;;0.85;69.43;100687.97;5034173;28;20033;-77
2022/03/05 07:40:37;;;;;;;13.95;5.30;;;;;;;0.89;69.66;100689.38;5033357;28;20033;-79
2022/03/05 07:43:03;;;;;;;20.47;5.87;;;;;;;1.16;69.30;100694.03;5032562;28;20029;-77
2022/03/05 07:45:28;;;;;;;20.38;5.60;;;;;;;1.45;69.00;100693.19;5033620;28;20025;-77
2022/03/05 07:47:53;;;;;;;13.43;5.20;;;;;;;1.35;67.44;100694.03;5032219;28;20128;-77
2022/03/05 07:50:19;;;;;;;15.03;4.63;;;;;;;1.37;67.09;100693.91;5032958;28;20751;-77
2022/03/05 07:52:44;;;;;;;15.90;6.13;;;;;;;1.58;67.23;100696.44;5031983;28;20295;-77
2022/03/05 07:55:10;;;;;;;18.10;5.75;;;;;;;1.52;65.75;100700.47;5033481;28;20029;-78
2022/03/05 07:57:35;;;;;;;16.60;4.93;;;;;;;1.65;66.58;100701.03;5033447;28;20091;-77
2022/03/05 08:00:01;;;;;;;13.43;4.70;;;;;;;1.67;66.26;100711.50;5033572;28;20041;-77
2022/03/05 08:02:27;;;;;;;;;;;;;;;1.74;66.34;100707.31;5032342;28;20268;-78
2022/03/05 08:04:52;;;;;;;18.13;6.72;;;;;;;1.82;65.26;100714.56;5033469;28;20008;-77
2022/03/05 08:07:18;;;;;;;18.05;5.03;;;;;;;1.82;65.33;100714.56;5031959;28;20032;-78
2022/03/05 08:09:43;;;;;;;15.97;6.10;;;;;;;1.85;65.27;100723.09;5033429;28;20040;-78
2022/03/05 08:12:10;;;;;;;18.10;5.32;;;;;;;1.91;64.74;100722.53;5033005;28;20259;-77
2022/03/05 08:14:37;;;;;;;18.70;6.10;;;;;;;1.99;64.56;100717.34;5033227;28;20041;-78
2022/03/05 08:17:03;;;;;;;17.70;5.70;;;;;;;2.34;63.25;100726.50;5032817;28;20030;-78
2022/03/05 08:19:28;;;;;;;18.30;4.88;;;;;;;2.41;63.23;100717.81;5031948;28;20036;-77
2022/03/05 08:21:53;;;;;;;17.93;5.73;;;;;;;2.44;62.81;100725.50;5033013;28;20034;-78
2022/03/05 08:24:19;;;;;;;14.03;4.73;;;;;;;2.39;62.37;100726.91;5033321;28;20264;-77
2022/03/05 08:26:44;;;;;;;18.00;6.53;;;;;;;2.57;62.37;100722.50;5034880;28;20088;-78
2022/03/05 08:29:10;;;;;;;16.80;6.07;;;;;;;2.50;62.94;100725.91;5037888;28;20136;-76
2022/03/05 08:31:35;;;;;;;14.43;5.50;;;;;;;2.57;62.69;100732.31;5036896;28;20383;-78
2022/03/05 08:34:03;;;;;;;17.47;6.63;;;;;;;2.78;61.47;100724.94;5036925;28;20083;-77
2022/03/05 08:36:29;;;;;;;16.70;5.88;;;;;;;2.75;62.59;100722.56;5035737;28;20114;-77
2022/03/05 08:38:55;;;;;;;15.98;5.55;;;;;;;2.83;62.41;100719.19;5037685;28;20113;-78
2022/03/05 08:41:20;;;;;;;;;;;;;;;3.01;61.54;100726.22;5037484;28;20037;-81
2022/03/05 08:43:46;;;;;;;12.45;4.10;;;;;;;2.98;60.47;100720.34;5037182;28;20438;-77
2022/03/05 08:46:11;;;;;;;13.80;5.67;;;;;;;2.91;61.20;100727.25;5035712;28;20102;-78
2022/03/05 08:48:37;;;;;;;18.10;6.37;;;;;;;3.12;60.29;100718.03;5036809;28;20274;-77
2022/03/05 08:51:03;;;;;;;12.03;5.23;;;;;;;3.23;60.29;100724.94;5035298;28;20033;-77
2022/03/05 08:53:29;;;;;;;19.50;5.75;;;;;;;3.21;60.32;100715.47;5036566;28;20252;-77
2022/03/05 08:55:54;;;;;;;15.07;6.15;;;;;;;3.25;60.09;100720.31;5035711;28;20453;-78
2022/03/05 08:58:20;;;;;;;16.42;4.95;;;;;;;3.43;59.19;100710.50;5041063;28;20099;-81
2022/03/05 09:00:47;;;;;;;17.90;5.95;;;;;;;3.38;59.32;100719.97;5042677;28;20052;-80
2022/03/05 09:03:12;;;;;;;16.33;5.10;;;;;;;3.54;59.61;100712.13;5042517;28;20037;-78
2022/03/05 09:05:38;;;;;;;16.10;4.67;;;;;;;3.72;58.69;100709.47;5041585;28;20025;-79
2022/03/05 09:08:04;;;;;;;12.30;5.05;;;;;;;3.94;57.95;100718.81;5041107;28;20272;-80
2022/03/05 09:10:30;;;;;;;11.48;4.75;;;;;;;3.93;56.74;100704.63;5040138;28;20030;-79
2022/03/05 09:12:55;;;;;;;13.95;5.15;;;;;;;3.81;57.82;100714.69;5037859;28;20032;-80
2022/03/05 09:15:21;;;;;;;17.97;5.87;;;;;;;4.08;56.27;100711.06;5040333;28;20037;-79
2022/03/05 09:17:46;;;;;;;16.02;4.43;;;;;;;4.01;57.00;100709.19;5038919;28;20025;-81
2022/03/05 09:20:12;;;;;;;15.00;5.05;;;;;;;4.12;56.22;100707.09;5039730;28;20030;-80
2022/03/05 09:22:38;;;;;;;;;;;;;;;4.26;56.44;100707.53;5040387;28;20095;-79
2022/03/05 09:25:04;;;;;;;13.40;4.47;;;;;;;4.44;56.23;100717.16;5036882;28;19909;-74
2022/03/05 09:27:30;;;;;;;15.38;5.47;;;;;;;4.54;55.77;100709.84;5036665;28;20069;-75
2022/03/05 09:29:55;;;;;;;14.55;5.60;;;;;;;4.51;54.97;100712.81;5036114;28;20141;-76
2022/03/05 09:32:21;;;;;;;14.95;4.63;;;;;;;4.56;55.92;100708.84;5036517;28;20033;-77
2022/03/05 09:34:46;;;;;;;14.40;5.00;;;;;;;4.63;55.09;100709.91;5036728;28;20052;-78
2022/03/05 09:37:12;;;;;;;16.50;5.07;;;;;;;4.59;56.76;100708.53;5034673;28;20276;-78
2022/03/05 09:39:37;;;;;;;12.80;5.00;;;;;;;4.80;54.53;100715.16;5036608;28;20091;-81
2022/03/05 09:42:04;;;;;;;14.53;4.10;;;;;;;5.14;56.34;100715.09;5036328;28;20071;-76
2022/03/05 09:44:30;;;;;;;13.38;4.57;;;;;;;5.13;55.32;100705.41;5036438;28;20786;-77
2022/03/05 09:46:57;;;;;;;14.23;4.87;;;;;;;5.39;54.22;100712.47;5035134;28;20074;-76
2022/03/05 09:49:26;;;;;;;16.25;6.05;;;;;;;5.52;52.55;100704.84;5037279;28;20260;-77
2022/03/05 09:51:53;;;;;;;16.38;5.38;;;;;;;5.52;52.81;100702.16;5036357;28;20029;-76
2022/03/05 09:54:18;;;;;;;14.02;5.47;;;;;;;5.43;52.46;100711.16;5035170;28;20030;-76
2022/03/05 09:56:43;;;;;;;14.43;4.63;;;;;;;5.66;54.10;100709.53;5035391;28;20032;-77
2022/03/05 09:59:10;;;;;;;14.20;5.83;;;;;;;5.51;52.82;100714.69;5036338;28;20342;-76
2022/03/05 10:01:35;;;;;;;;;;;;;;;5.38;52.26;100722.31;5036309;28;20464;-77
2022/03/05 10:04:02;;;;;;;13.85;5.10;;;;;;;5.71;51.64;100715.22;5035739;28;19917;-78
2022/03/05 10:06:28;;;;;;;16.35;5.38;;;;;;;5.71;52.36;100715.22;5036367;28;20030;-76
2022/03/05 10:08:57;;;;;;;14.05;4.75;;;;;;;5.75;52.82;100718.38;5035135;28;20049;-76
2022/03/05 10:11:24;;;;;;;16.58;4.68;;;;;;;5.86;51.31;100705.50;5034983;28;20443;-76
2022/03/05 10:13:49;;;;;;;16.95;5.88;;;;;;;5.79;51.40;100709.84;5034898;28;20064;-75
2022/03/05 10:16:27;;;;;;;14.38;5.97;;;;;;;5.97;52.04;100711.56;5034651;28;20439;-76
2022/03/05 10:18:56;;;;;;;15.23;5.25;;;;;;;6.22;51.61;100713.22;5041495;28;20040;-83
2022/03/05 10:21:30;;;;;;;14.13;4.93;;;;;;;6.15;50.10;100707.69;5038050;28;20041;-78
2022/03/05 10:24:08;;;;;;;14.82;5.43;;;;;;;6.01;50.42;100699.50;5037371;28;20030;-78
2022/03/05 10:27:04;;;;;;;15.20;5.05;;;;;;;6.15;50.26;100706.84;5037245;28;20021;-79
2022/03/05 10:29:36;;;;;;;15.82;5.57;;;;;;;6.23;50.13;100709.53;5029236;28;20124;-79
2022/03/05 10:32:02;;;;;;;15.02;4.50;;;;;;;6.61;49.99;100710.63;5037640;28;20080;-79
2022/03/05 10:34:51;;;;;;;13.60;3.83;;;;;;;6.61;48.32;100705.25;5039136;28;20033;-80
2022/03/05 10:37:18;;;;;;;12.88;4.32;;;;;;;6.86;47.45;100692.59;5031672;28;20042;-76
2022/03/05 10:39:45;;;;;;;15.52;5.65;;;;;;;7.27;46.26;100696.75;5034456;28;20487;-74
2022/03/05 10:42:23;;;;;;;11.77;4.03;;;;;;;7.15;44.74;100686.59;5034679;28;20472;-77
2022/03/05 10:45:11;;;;;;;15.02;4.28;;;;;;;7.15;43.16;100698.16;5037014;28;20040;-82
2022/03/05 10:47:46;;;;;;;13.95;4.63;;;;;;;7.08;43.00;100696.34;5039018;28;20072;-84
2022/03/05 10:50:29;;;;;;;14.25;4.32;;;;;;;7.23;42.68;100694.59;5037539;28;20090;-81
2022/03/05 10:53:02;;;;;;;13.98;4.65;;;;;;;7.32;41.75;100696.22;5041617;28;20055;-83
2022/03/05 10:55:35;;;;;;;11.55;3.83;;;;;;;7.26;41.49;100700.44;5040391;28;20025;-86
2022/03/05 10:58:13;;;;;;;13.63;3.75;;;;;;;7.31;41.00;100695.38;5038197;28;20486;-84
2022/03/05 11:00:41;;;;;;;11.32;4.32;;;;;;;7.10;41.63;100700.53;5039344;28;20112;-86
2022/03/05 11:03:07;;;;;;;14.32;4.53;;;;;;;7.20;42.84;100689.56;5045299;28;20029;-90
2022/03/05 11:05:45;;;;;;;13.18;4.00;;;;;;;7.18;42.24;100691.59;5038201;28;20105;-85
2022/03/05 11:08:12;;;;;;;12.10;4.43;;;;;;;7.54;41.33;100691.84;5039593;28;20546;-82
2022/03/05 11:10:38;;;;;;;11.48;4.00;;;;;;;7.59;40.28;100694.84;5038446;28;20468;-84
2022/03/05 11:13:04;;;;;;;13.18;4.40;;;;;;;7.47;39.79;100685.56;5039553;28;20033;-85
2022/03/05 11:15:31;;;;;;;11.48;4.25;;;;;;;7.59;39.17;100686.81;5041022;28;20040;-85
2022/03/05 11:18:00;;;;;;;13.13;4.43;;;;;;;7.74;39.90;100687.69;5039801;28;20532;-84